Time,TemperatureF,DewpointF,PressureIn,WindDirection,WindDirectionDegrees,WindSpeedMPH,WindSpeedGustMPH,Humidity,HourlyPrecipIn,Conditions,Clouds,dailyrainin,SoftwareType,DateUTC
2013-04-11 00:00:00,71.1,70.2,29.90,ESE,121,21.0,21.0,97,0.00,,,0.00,Wunderground v.1.15,2013-04-11 04:00:00,
2013-04-11 00:05:00,71.1,70.5,29.90,SE,126,20.0,21.0,98,0.00,,,0.00,Wunderground v.1.15,2013-04-11 04:05:00,
2013-04-11 00:10:00,71.2,70.6,29.90,SE,127,19.0,20.0,98,0.00,,,0.00,Wunderground v.1.15,2013-04-11 04:10:00,
2013-04-11 00:15:00,71.2,70.6,29.90,SE,126,19.0,20.0,98,0.00,,,0.00,Wunderground v.1.15,2013-04-11 04:15:00,
2013-04-11 00:20:00,71.2,70.6,29.89,SE,132,19.0,19.0,98,0.00,,,0.00,Wunderground v.1.15,2013-04-11 04:20:00,
2013-04-11 00:25:00,71.2,70.6,29.89,SE,132,18.0,20.0,98,0.00,,,0.00,Wunderground v.1.15,2013-04-11 04:25:00,
2013-04-11 00:35:00,71.2,70.6,29.89,SE,146,18.0,18.0,98,0.00,,,0.00,Wunderground v.1.15,2013-04-11 04:35:00,
2013-04-11 00:40:00,71.2,70.6,29.89,ESE,123,19.0,21.0,98,0.00,,,0.00,Wunderground v.1.15,2013-04-11 04:40:00,
2013-04-11 00:50:00,71.2,70.6,29.89,SE,132,19.0,19.0,98,0.00,,,0.00,Wunderground v.1.15,2013-04-11 04:50:00,
2013-04-11 00:55:00,71.1,70.5,29.89,SE,126,18.0,19.0,98,0.00,,,0.00,Wunderground v.1.15,2013-04-11 04:55:00,
2013-04-11 01:00:00,71.0,70.4,29.89,ESE,111,17.0,17.0,98,0.00,,,0.00,Wunderground v.1.15,2013-04-11 05:00:00,
2013-04-11 01:05:00,71.0,70.4,29.89,SE,126,17.0,18.0,98,0.00,,,0.00,Wunderground v.1.15,2013-04-11 05:05:00,
2013-04-11 01:15:00,71.1,70.5,29.88,SE,129,15.0,21.0,98,0.00,,,0.00,Wunderground v.1.15,2013-04-11 05:15:00,
2013-04-11 01:20:00,71.0,70.4,29.88,ESE,123,14.0,16.0,98,0.00,,,0.00,Wunderground v.1.15,2013-04-11 05:20:00,
2013-04-11 01:25:00,71.0,70.4,29.87,SSE,147,14.0,16.0,98,0.00,,,0.00,Wunderground v.1.15,2013-04-11 05:25:00,
2013-04-11 01:30:00,71.0,70.4,29.87,SSE,163,14.0,14.0,98,0.00,,,0.00,Wunderground v.1.15,2013-04-11 05:30:00,
2013-04-11 01:35:00,71.0,70.4,29.87,SE,130,12.0,15.0,98,0.00,,,0.00,Wunderground v.1.15,2013-04-11 05:35:00,
2013-04-11 01:40:00,71.0,70.4,29.87,SE,124,13.0,15.0,98,0.00,,,0.00,Wunderground v.1.15,2013-04-11 05:40:00,
2013-04-11 01:45:00,71.0,70.4,29.86,SSE,168,14.0,15.0,98,0.00,,,0.00,Wunderground v.1.15,2013-04-11 05:45:00,
2013-04-11 01:50:00,71.0,70.4,29.86,SE,128,14.0,14.0,98,0.00,,,0.00,Wunderground v.1.15,2013-04-11 05:50:00,
2013-04-11 01:55:00,71.0,70.4,29.86,ESE,121,14.0,17.0,98,0.00,,,0.00,Wunderground v.1.15,2013-04-11 05:55:00,
2013-04-11 02:05:00,71.0,70.4,29.86,SSE,157,14.0,15.0,98,0.00,,,0.00,Wunderground v.1.15,2013-04-11 06:05:00,
2013-04-11 02:10:00,71.0,70.4,29.86,SSE,149,15.0,15.0,98,0.00,,,0.00,Wunderground v.1.15,2013-04-11 06:10:00,
2013-04-11 02:15:00,71.0,70.4,29.85,ESE,120,15.0,16.0,98,0.00,,,0.00,Wunderground v.1.15,2013-04-11 06:15:00,
2013-04-11 02:25:00,71.0,70.4,29.85,SE,138,17.0,21.0,98,0.00,,,0.00,Wunderground v.1.15,2013-04-11 06:25:00,
2013-04-11 02:35:00,71.0,70.4,29.84,ESE,122,15.0,18.0,98,0.00,,,0.00,Wunderground v.1.15,2013-04-11 06:35:00,
2013-04-11 02:40:00,71.0,70.4,29.84,SE,136,15.0,17.0,98,0.00,,,0.00,Wunderground v.1.15,2013-04-11 06:40:00,
2013-04-11 02:45:00,71.0,70.4,29.84,SSE,162,14.0,17.0,98,0.00,,,0.00,Wunderground v.1.15,2013-04-11 06:45:00,
2013-04-11 02:50:00,71.0,70.4,29.83,ESE,123,14.0,14.0,98,0.00,,,0.00,Wunderground v.1.15,2013-04-11 06:50:00,
2013-04-11 03:00:00,71.1,70.5,29.83,SSE,157,14.0,14.0,98,0.00,,,0.00,Wunderground v.1.15,2013-04-11 07:00:00,
2013-04-11 03:05:00,71.0,70.4,29.83,SE,146,14.0,15.0,98,0.00,,,0.00,Wunderground v.1.15,2013-04-11 07:05:00,
2013-04-11 03:10:00,71.0,70.4,29.83,SSE,148,14.0,14.0,98,0.00,,,0.00,Wunderground v.1.15,2013-04-11 07:10:00,
2013-04-11 03:20:00,71.0,70.4,29.82,SSE,150,15.0,15.0,98,0.00,,,0.00,Wunderground v.1.15,2013-04-11 07:20:00,
2013-04-11 03:25:00,71.0,70.4,29.82,ESE,109,15.0,15.0,98,0.00,,,0.00,Wunderground v.1.15,2013-04-11 07:25:00,
2013-04-11 03:30:00,71.0,70.4,29.82,SSE,150,15.0,17.0,98,0.00,,,0.00,Wunderground v.1.15,2013-04-11 07:30:00,
2013-04-11 03:35:00,71.0,70.4,29.82,SSE,157,17.0,18.0,98,0.00,,,0.00,Wunderground v.1.15,2013-04-11 07:35:00,
2013-04-11 03:40:00,71.0,70.4,29.82,SE,146,18.0,20.0,98,0.00,,,0.00,Wunderground v.1.15,2013-04-11 07:40:00,
2013-04-11 03:45:00,71.0,70.4,29.82,SSE,155,17.0,20.0,98,0.00,,,0.00,Wunderground v.1.15,2013-04-11 07:45:00,
2013-04-11 03:50:00,71.0,70.4,29.82,SSE,156,17.0,17.0,98,0.00,,,0.00,Wunderground v.1.15,2013-04-11 07:50:00,
2013-04-11 03:55:00,70.9,70.3,29.81,SSE,158,17.0,17.0,98,0.00,,,0.00,Wunderground v.1.15,2013-04-11 07:55:00,
2013-04-11 04:05:00,70.9,70.3,29.81,SSE,156,15.0,16.0,98,0.00,,,0.00,Wunderground v.1.15,2013-04-11 08:05:00,
2013-04-11 04:10:00,70.8,70.2,29.81,SSE,149,15.0,15.0,98,0.00,,,0.00,Wunderground v.1.15,2013-04-11 08:10:00,
2013-04-11 04:15:00,70.9,70.3,29.81,SE,146,15.0,15.0,98,0.00,,,0.00,Wunderground v.1.15,2013-04-11 08:15:00,
2013-04-11 04:20:00,70.9,70.3,29.81,SE,144,14.0,15.0,98,0.00,,,0.00,Wunderground v.1.15,2013-04-11 08:20:00,
2013-04-11 04:25:00,70.9,70.3,29.81,SSE,168,13.0,17.0,98,0.00,,,0.00,Wunderground v.1.15,2013-04-11 08:25:00,
2013-04-11 04:35:00,71.0,70.4,29.80,SSE,148,14.0,15.0,98,0.00,,,0.00,Wunderground v.1.15,2013-04-11 08:35:00,
2013-04-11 04:45:00,70.9,70.3,29.80,ESE,123,14.0,15.0,98,0.00,,,0.00,Wunderground v.1.15,2013-04-11 08:45:00,
2013-04-11 04:50:00,70.9,70.3,29.80,SSE,154,16.0,21.0,98,0.00,,,0.00,Wunderground v.1.15,2013-04-11 08:50:00,
2013-04-11 04:55:00,70.9,70.3,29.79,SSE,161,17.0,21.0,98,0.00,,,0.00,Wunderground v.1.15,2013-04-11 08:55:00,
2013-04-11 05:00:00,70.9,70.3,29.79,South,175,15.0,15.0,98,0.00,,,0.00,Wunderground v.1.15,2013-04-11 09:00:00,
2013-04-11 05:05:00,71.0,70.4,29.79,SSE,164,14.0,15.0,98,0.00,,,0.00,Wunderground v.1.15,2013-04-11 09:05:00,
2013-04-11 05:15:00,71.0,70.4,29.79,SSE,154,16.0,18.0,98,0.00,,,0.00,Wunderground v.1.15,2013-04-11 09:15:00,
2013-04-11 05:20:00,71.0,70.4,29.79,SE,146,17.0,18.0,98,0.00,,,0.00,Wunderground v.1.15,2013-04-11 09:20:00,
2013-04-11 05:25:00,71.1,70.5,29.79,SSE,150,16.0,18.0,98,0.00,,,0.00,Wunderground v.1.15,2013-04-11 09:25:00,
2013-04-11 05:30:00,71.1,70.5,29.79,SSE,153,14.0,14.0,98,0.00,,,0.00,Wunderground v.1.15,2013-04-11 09:30:00,
2013-04-11 05:35:00,71.1,70.5,29.79,SSE,154,16.0,20.0,98,0.00,,,0.00,Wunderground v.1.15,2013-04-11 09:35:00,
2013-04-11 05:40:00,71.1,70.5,29.79,ESE,113,18.0,18.0,98,0.00,,,0.00,Wunderground v.1.15,2013-04-11 09:40:00,
2013-04-11 05:50:00,71.1,70.5,29.78,SSE,154,15.0,15.0,98,0.00,,,0.00,Wunderground v.1.15,2013-04-11 09:50:00,
2013-04-11 05:55:00,71.1,70.5,29.78,South,173,15.0,15.0,98,0.00,,,0.00,Wunderground v.1.15,2013-04-11 09:55:00,
2013-04-11 06:00:00,71.2,70.6,29.78,SSE,160,14.0,14.0,98,0.00,,,0.00,Wunderground v.1.15,2013-04-11 10:00:00,
2013-04-11 06:05:00,71.2,70.6,29.78,SSE,150,14.0,18.0,98,0.00,,,0.00,Wunderground v.1.15,2013-04-11 10:05:00,
2013-04-11 06:10:00,71.2,70.6,29.78,SE,130,14.0,18.0,98,0.00,,,0.00,Wunderground v.1.15,2013-04-11 10:10:00,
2013-04-11 06:15:00,71.2,70.6,29.77,SSE,153,14.0,21.0,98,0.00,,,0.00,Wunderground v.1.15,2013-04-11 10:15:00,
2013-04-11 06:25:00,71.2,70.6,29.78,SSE,164,15.0,18.0,98,0.00,,,0.00,Wunderground v.1.15,2013-04-11 10:25:00,
2013-04-11 06:35:00,71.2,70.6,29.78,SE,128,20.0,23.0,98,0.00,,,0.00,Wunderground v.1.15,2013-04-11 10:35:00,
2013-04-11 06:40:00,71.2,70.6,29.78,South,169,20.0,20.0,98,0.00,,,0.00,Wunderground v.1.15,2013-04-11 10:40:00,
2013-04-11 06:45:00,71.1,70.5,29.78,SE,144,19.0,20.0,98,0.00,,,0.00,Wunderground v.1.15,2013-04-11 10:45:00,
2013-04-11 06:50:00,71.1,70.5,29.78,SSE,164,18.0,19.0,98,0.00,,,0.00,Wunderground v.1.15,2013-04-11 10:50:00,
2013-04-11 07:00:00,71.1,70.5,29.78,SE,142,18.0,18.0,98,0.00,,,0.00,Wunderground v.1.15,2013-04-11 11:00:00,
2013-04-11 07:05:00,71.1,70.5,29.78,SSE,153,17.0,18.0,98,0.00,,,0.00,Wunderground v.1.15,2013-04-11 11:05:00,
2013-04-11 07:10:00,71.1,70.5,29.78,SE,134,17.0,18.0,98,0.00,,,0.00,Wunderground v.1.15,2013-04-11 11:10:00,
2013-04-11 07:20:00,71.1,70.5,29.78,SSE,148,18.0,18.0,98,0.00,,,0.00,Wunderground v.1.15,2013-04-11 11:20:00,
2013-04-11 07:25:00,71.1,70.5,29.79,SSE,147,17.0,20.0,98,0.00,,,0.00,Wunderground v.1.15,2013-04-11 11:25:00,
2013-04-11 07:30:00,71.2,70.6,29.79,SE,130,17.0,23.0,98,0.00,,,0.00,Wunderground v.1.15,2013-04-11 11:30:00,
2013-04-11 07:35:00,71.2,70.6,29.79,SSE,161,18.0,23.0,98,0.00,,,0.00,Wunderground v.1.15,2013-04-11 11:35:00,
2013-04-11 07:40:00,71.2,70.6,29.79,SSE,165,17.0,19.0,98,0.00,,,0.00,Wunderground v.1.15,2013-04-11 11:40:00,
2013-04-11 07:50:00,71.2,70.6,29.79,SE,142,16.0,16.0,98,0.00,,,0.00,Wunderground v.1.15,2013-04-11 11:50:00,
2013-04-11 07:55:00,71.2,70.6,29.80,SSE,157,15.0,16.0,98,0.00,,,0.00,Wunderground v.1.15,2013-04-11 11:55:00,
2013-04-11 08:00:00,71.2,70.6,29.80,SSE,154,16.0,16.0,98,0.00,,,0.00,Wunderground v.1.15,2013-04-11 12:00:00,
2013-04-11 08:10:00,71.3,70.7,29.80,SSE,160,17.0,17.0,98,0.00,,,0.00,Wunderground v.1.15,2013-04-11 12:10:00,
2013-04-11 08:15:00,71.3,70.7,29.80,SSE,154,15.0,18.0,98,0.00,,,0.00,Wunderground v.1.15,2013-04-11 12:15:00,
2013-04-11 08:20:00,71.3,70.7,29.81,SSE,157,15.0,19.0,98,0.00,,,0.00,Wunderground v.1.15,2013-04-11 12:20:00,
2013-04-11 08:25:00,71.3,70.7,29.80,SSE,161,16.0,19.0,98,0.00,,,0.00,Wunderground v.1.15,2013-04-11 12:25:00,
2013-04-11 08:35:00,71.4,70.8,29.81,SSE,163,16.0,16.0,98,0.00,,,0.00,Wunderground v.1.15,2013-04-11 12:35:00,
2013-04-11 08:45:00,71.5,70.9,29.81,SSE,159,15.0,17.0,98,0.00,,,0.00,Wunderground v.1.15,2013-04-11 12:45:00,
2013-04-11 08:50:00,71.5,70.9,29.81,SSE,149,15.0,15.0,98,0.00,,,0.00,Wunderground v.1.15,2013-04-11 12:50:00,
2013-04-11 08:55:00,71.4,70.8,29.81,SSE,148,16.0,19.0,98,0.00,,,0.00,Wunderground v.1.15,2013-04-11 12:55:00,
2013-04-11 09:05:00,71.5,70.9,29.81,SE,146,16.0,17.0,98,0.00,,,0.00,Wunderground v.1.15,2013-04-11 13:05:00,
2013-04-11 09:10:00,71.5,70.9,29.81,SSE,147,15.0,15.0,98,0.00,,,0.00,Wunderground v.1.15,2013-04-11 13:10:00,
2013-04-11 09:15:00,71.5,70.9,29.81,SE,142,14.0,15.0,98,0.00,,,0.00,Wunderground v.1.15,2013-04-11 13:15:00,
2013-04-11 09:20:00,71.6,71.0,29.81,SSE,161,13.0,13.0,98,0.00,,,0.00,Wunderground v.1.15,2013-04-11 13:20:00,
2013-04-11 09:25:00,71.7,71.1,29.81,SE,141,13.0,17.0,98,0.00,,,0.00,Wunderground v.1.15,2013-04-11 13:25:00,
2013-04-11 09:30:00,71.8,71.2,29.81,SSE,158,15.0,15.0,98,0.00,,,0.00,Wunderground v.1.15,2013-04-11 13:30:00,
2013-04-11 09:35:00,71.9,71.3,29.81,SSE,149,15.0,15.0,98,0.00,,,0.00,Wunderground v.1.15,2013-04-11 13:35:00,
2013-04-11 09:40:00,71.9,71.3,29.81,SSE,161,15.0,15.0,98,0.00,,,0.00,Wunderground v.1.15,2013-04-11 13:40:00,
2013-04-11 09:50:00,72.0,71.4,29.82,SSE,161,15.0,15.0,98,0.00,,,0.00,Wunderground v.1.15,2013-04-11 13:50:00,
2013-04-11 09:55:00,72.1,71.2,29.82,South,170,14.0,15.0,97,0.00,,,0.00,Wunderground v.1.15,2013-04-11 13:55:00,
2013-04-11 10:00:00,72.1,71.2,29.82,SE,134,14.0,15.0,97,0.00,,,0.00,Wunderground v.1.15,2013-04-11 14:00:00,
2013-04-11 10:05:00,72.1,71.2,29.82,SE,132,15.0,15.0,97,0.00,,,0.00,Wunderground v.1.15,2013-04-11 14:05:00,
2013-04-11 10:15:00,72.2,71.3,29.82,SSE,163,14.0,15.0,97,0.00,,,0.00,Wunderground v.1.15,2013-04-11 14:15:00,
2013-04-11 10:20:00,72.2,71.3,29.82,SSE,150,14.0,14.0,97,0.00,,,0.00,Wunderground v.1.15,2013-04-11 14:20:00,
2013-04-11 10:30:00,72.3,71.4,29.82,South,173,13.0,13.0,97,0.00,,,0.00,Wunderground v.1.15,2013-04-11 14:30:00,
2013-04-11 10:35:00,72.5,71.6,29.82,South,173,13.0,14.0,97,0.00,,,0.00,Wunderground v.1.15,2013-04-11 14:35:00,
2013-04-11 10:40:00,72.6,71.7,29.82,SSE,163,13.0,16.0,97,0.00,,,0.00,Wunderground v.1.15,2013-04-11 14:40:00,
2013-04-11 10:50:00,72.8,71.6,29.82,SSE,158,14.0,14.0,96,0.00,,,0.00,Wunderground v.1.15,2013-04-11 14:50:00,
2013-04-11 10:55:00,73.0,71.8,29.82,SSE,156,14.0,15.0,96,0.00,,,0.00,Wunderground v.1.15,2013-04-11 14:55:00,
2013-04-11 11:00:00,73.1,71.9,29.82,SSE,157,14.0,15.0,96,0.00,,,0.00,Wunderground v.1.15,2013-04-11 15:00:00,
2013-04-11 11:05:00,73.1,71.6,29.82,SSE,157,14.0,15.0,95,0.00,,,0.00,Wunderground v.1.15,2013-04-11 15:05:00,
2013-04-11 11:10:00,73.4,71.9,29.82,SSE,167,14.0,14.0,95,0.00,,,0.00,Wunderground v.1.15,2013-04-11 15:10:00,
2013-04-11 11:20:00,73.5,71.7,29.82,SSE,161,16.0,16.0,94,0.00,,,0.00,Wunderground v.1.15,2013-04-11 15:20:00,
2013-04-11 11:25:00,73.7,72.2,29.82,SSE,159,18.0,20.0,95,0.00,,,0.00,Wunderground v.1.15,2013-04-11 15:25:00,
2013-04-11 11:30:00,73.6,71.8,29.82,SSE,150,19.0,19.0,94,0.00,,,0.00,Wunderground v.1.15,2013-04-11 15:30:00,
2013-04-11 11:40:00,73.5,71.7,29.82,SSE,157,19.0,22.0,94,0.00,,,0.00,Wunderground v.1.15,2013-04-11 15:40:00,
2013-04-11 11:45:00,73.6,72.1,29.82,SSE,155,20.0,22.0,95,0.00,,,0.00,Wunderground v.1.15,2013-04-11 15:45:00,
2013-04-11 11:50:00,73.6,72.1,29.82,SE,146,20.0,20.0,95,0.00,,,0.00,Wunderground v.1.15,2013-04-11 15:50:00,
2013-04-11 11:55:00,73.9,72.4,29.81,SSE,157,20.0,20.0,95,0.00,,,0.00,Wunderground v.1.15,2013-04-11 15:55:00,
2013-04-11 12:05:00,74.4,72.6,29.81,SSE,155,19.0,21.0,94,0.00,,,0.00,Wunderground v.1.15,2013-04-11 16:05:00,
2013-04-11 12:15:00,74.4,72.6,29.81,SE,130,23.0,24.0,94,0.00,,,0.00,Wunderground v.1.15,2013-04-11 16:15:00,
2013-04-11 12:20:00,74.4,72.6,29.80,SSE,157,23.0,23.0,94,0.00,,,0.00,Wunderground v.1.15,2013-04-11 16:20:00,
2013-04-11 12:25:00,74.5,72.7,29.80,SSE,166,22.0,23.0,94,0.00,,,0.00,Wunderground v.1.15,2013-04-11 16:25:00,
2013-04-11 12:35:00,74.6,72.8,29.79,SSE,156,20.0,22.0,94,0.00,,,0.00,Wunderground v.1.15,2013-04-11 16:35:00,
2013-04-11 12:40:00,74.8,73.0,29.79,SE,145,19.0,20.0,94,0.00,,,0.00,Wunderground v.1.15,2013-04-11 16:40:00,
2013-04-11 12:45:00,75.1,73.3,29.79,SSE,155,19.0,24.0,94,0.00,,,0.00,Wunderground v.1.15,2013-04-11 16:45:00,
2013-04-11 12:50:00,75.2,73.0,29.78,SSE,151,20.0,23.0,93,0.00,,,0.00,Wunderground v.1.15,2013-04-11 16:50:00,
2013-04-11 12:55:00,75.2,73.0,29.78,SE,131,20.0,23.0,93,0.00,,,0.00,Wunderground v.1.15,2013-04-11 16:55:00,
2013-04-11 13:05:00,74.9,73.1,29.77,SSE,152,19.0,20.0,94,0.00,,,0.00,Wunderground v.1.15,2013-04-11 17:05:00,
2013-04-11 13:10:00,75.1,73.3,29.77,SSE,162,18.0,18.0,94,0.00,,,0.00,Wunderground v.1.15,2013-04-11 17:10:00,
2013-04-11 13:15:00,75.4,73.2,29.77,SSE,147,19.0,22.0,93,0.00,,,0.00,Wunderground v.1.15,2013-04-11 17:15:00,
2013-04-11 13:25:00,75.3,73.1,29.76,SSE,153,20.0,21.0,93,0.00,,,0.00,Wunderground v.1.15,2013-04-11 17:25:00,
2013-04-11 13:30:00,75.2,73.0,29.76,SSE,151,21.0,26.0,93,0.00,,,0.00,Wunderground v.1.15,2013-04-11 17:30:00,
2013-04-11 13:40:00,75.0,73.2,29.75,SE,130,19.0,21.0,94,0.00,,,0.00,Wunderground v.1.15,2013-04-11 17:40:00,
2013-04-11 13:45:00,75.0,73.2,29.75,South,173,19.0,21.0,94,0.00,,,0.00,Wunderground v.1.15,2013-04-11 17:45:00,
2013-04-11 13:50:00,75.0,73.2,29.75,SE,130,19.0,19.0,94,0.00,,,0.00,Wunderground v.1.15,2013-04-11 17:50:00,
2013-04-11 14:00:00,74.6,72.8,29.74,SSE,163,19.0,19.0,94,0.00,,,0.00,Wunderground v.1.15,2013-04-11 18:00:00,
2013-04-11 14:05:00,74.6,72.8,29.74,SSE,162,20.0,20.0,94,0.00,,,0.00,Wunderground v.1.15,2013-04-11 18:05:00,
2013-04-11 14:10:00,74.5,72.7,29.74,SSE,149,22.0,22.0,94,0.00,,,0.00,Wunderground v.1.15,2013-04-11 18:10:00,
2013-04-11 14:20:00,73.9,72.4,29.73,SSE,159,25.0,25.0,95,0.00,,,0.00,Wunderground v.1.15,2013-04-11 18:20:00,
2013-04-11 14:25:00,73.7,72.2,29.73,SSE,153,25.0,25.0,95,0.00,,,0.00,Wunderground v.1.15,2013-04-11 18:25:00,
2013-04-11 14:35:00,73.7,72.5,29.73,SSE,160,24.0,29.0,96,0.00,,,0.00,Wunderground v.1.15,2013-04-11 18:35:00,
2013-04-11 14:40:00,73.6,72.4,29.73,SE,146,23.0,23.0,96,0.00,,,0.00,Wunderground v.1.15,2013-04-11 18:40:00,
2013-04-11 14:50:00,73.4,72.2,29.72,SSE,155,20.0,20.0,96,0.00,,,0.00,Wunderground v.1.15,2013-04-11 18:50:00,
2013-04-11 14:55:00,73.4,72.2,29.71,SSE,156,20.0,24.0,96,0.00,,,0.00,Wunderground v.1.15,2013-04-11 18:55:00,
2013-04-11 15:00:00,73.5,72.3,29.72,SSE,152,20.0,20.0,96,0.00,,,0.00,Wunderground v.1.15,2013-04-11 19:00:00,
2013-04-11 15:10:00,73.2,72.0,29.72,SSE,158,20.0,20.0,96,0.00,,,0.00,Wunderground v.1.15,2013-04-11 19:10:00,
2013-04-11 15:20:00,73.1,71.9,29.71,SSE,153,19.0,19.0,96,0.00,,,0.00,Wunderground v.1.15,2013-04-11 19:20:00,
2013-04-11 15:25:00,73.1,71.9,29.72,SSE,163,18.0,19.0,96,0.00,,,0.00,Wunderground v.1.15,2013-04-11 19:25:00,
2013-04-11 15:30:00,73.1,72.2,29.71,SSE,163,18.0,18.0,97,0.00,,,0.00,Wunderground v.1.15,2013-04-11 19:30:00,
2013-04-11 15:35:00,73.1,72.2,29.71,SSE,155,19.0,20.0,97,0.00,,,0.00,Wunderground v.1.15,2013-04-11 19:35:00,
2013-04-11 15:45:00,73.0,72.1,29.70,South,173,19.0,22.0,97,0.00,,,0.00,Wunderground v.1.15,2013-04-11 19:45:00,
2013-04-11 15:50:00,73.0,72.1,29.69,SSE,152,19.0,19.0,97,0.00,,,0.00,Wunderground v.1.15,2013-04-11 19:50:00,
2013-04-11 15:55:00,72.8,71.9,29.69,SSE,150,19.0,19.0,97,0.00,,,0.00,Wunderground v.1.15,2013-04-11 19:55:00,
2013-04-11 16:05:00,73.2,72.3,29.68,SSE,159,19.0,28.0,97,0.00,,,0.00,Wunderground v.1.15,2013-04-11 20:05:00,
2013-04-11 16:10:00,73.0,72.1,29.68,SSE,151,20.0,20.0,97,0.00,,,0.00,Wunderground v.1.15,2013-04-11 20:10:00,
2013-04-11 16:15:00,73.1,72.2,29.67,SSE,162,21.0,24.0,97,0.00,,,0.00,Wunderground v.1.15,2013-04-11 20:15:00,
2013-04-11 16:20:00,73.0,72.1,29.67,SSE,166,20.0,21.0,97,0.00,,,0.00,Wunderground v.1.15,2013-04-11 20:20:00,
2013-04-11 16:25:00,73.0,72.1,29.67,SSE,157,19.0,21.0,97,0.00,,,0.00,Wunderground v.1.15,2013-04-11 20:25:00,
2013-04-11 16:35:00,73.0,72.1,29.67,SSE,165,19.0,19.0,97,0.00,,,0.00,Wunderground v.1.15,2013-04-11 20:35:00,
2013-04-11 16:40:00,73.0,72.1,29.67,SSE,158,19.0,19.0,97,0.00,,,0.00,Wunderground v.1.15,2013-04-11 20:40:00,
2013-04-11 16:45:00,72.9,72.0,29.67,SSE,158,19.0,19.0,97,0.00,,,0.00,Wunderground v.1.15,2013-04-11 20:45:00,
2013-04-11 16:50:00,72.8,71.9,29.66,South,178,18.0,18.0,97,0.00,,,0.00,Wunderground v.1.15,2013-04-11 20:50:00,
2013-04-11 17:00:00,72.9,72.0,29.65,SSE,150,20.0,20.0,97,0.00,,,0.00,Wunderground v.1.15,2013-04-11 21:00:00,
2013-04-11 17:05:00,72.9,72.0,29.64,SSE,159,20.0,20.0,97,0.00,,,0.00,Wunderground v.1.15,2013-04-11 21:05:00,
2013-04-11 17:10:00,72.9,72.0,29.65,SSE,157,21.0,26.0,97,0.00,,,0.00,Wunderground v.1.15,2013-04-11 21:10:00,
2013-04-11 17:15:00,72.9,72.0,29.64,South,169,21.0,26.0,97,0.00,,,0.00,Wunderground v.1.15,2013-04-11 21:15:00,
2013-04-11 17:20:00,72.8,71.9,29.64,South,173,19.0,19.0,97,0.00,,,0.00,Wunderground v.1.15,2013-04-11 21:20:00,
2013-04-11 17:25:00,72.8,71.9,29.64,SE,144,18.0,19.0,97,0.00,,,0.00,Wunderground v.1.15,2013-04-11 21:25:00,
2013-04-11 17:35:00,73.1,72.2,29.64,SSE,168,18.0,19.0,97,0.00,,,0.00,Wunderground v.1.15,2013-04-11 21:35:00,
2013-04-11 17:40:00,73.4,72.5,29.64,SSW,193,18.0,20.0,97,0.00,,,0.00,Wunderground v.1.15,2013-04-11 21:40:00,
2013-04-11 17:50:00,73.0,72.1,29.64,SSE,168,14.0,14.0,97,0.00,,,0.00,Wunderground v.1.15,2013-04-11 21:50:00,
2013-04-11 17:55:00,72.8,71.9,29.64,SSE,167,13.0,17.0,97,0.00,,,0.00,Wunderground v.1.15,2013-04-11 21:55:00,
2013-04-11 18:00:00,73.0,72.1,29.64,South,169,13.0,20.0,97,0.00,,,0.00,Wunderground v.1.15,2013-04-11 22:00:00,
2013-04-11 18:10:00,72.9,72.0,29.62,South,186,17.0,21.0,97,0.00,,,0.01,Wunderground v.1.15,2013-04-11 22:10:00,
2013-04-11 18:15:00,72.6,71.7,29.63,SSW,192,17.0,21.0,97,0.27,,,0.05,Wunderground v.1.15,2013-04-11 22:15:00,
2013-04-11 18:20:00,72.6,72.0,29.62,South,179,18.0,21.0,98,0.11,,,0.06,Wunderground v.1.15,2013-04-11 22:20:00,
2013-04-11 18:25:00,72.6,72.0,29.62,South,178,18.0,21.0,98,0.51,,,0.08,Wunderground v.1.15,2013-04-11 22:25:00,
2013-04-11 18:35:00,72.5,71.9,29.66,West,267,17.0,22.0,98,0.24,,,0.17,Wunderground v.1.15,2013-04-11 22:35:00,
2013-04-11 18:45:00,69.6,68.7,29.66,WNW,286,19.0,19.0,97,2.81,,,0.88,Wunderground v.1.15,2013-04-11 22:45:00,
2013-04-11 18:50:00,69.5,68.9,29.65,NW,306,16.0,19.0,98,0.59,,,1.02,Wunderground v.1.15,2013-04-11 22:50:00,
2013-04-11 18:55:00,69.5,68.9,29.64,WNW,302,15.0,19.0,98,0.78,,,1.08,Wunderground v.1.15,2013-04-11 22:55:00,
2013-04-11 19:05:00,69.5,68.9,29.64,NW,316,13.0,16.0,98,0.20,,,1.18,Wunderground v.1.15,2013-04-11 23:05:00,
2013-04-11 19:10:00,69.4,68.8,29.65,WNW,302,10.0,10.0,98,0.15,,,1.20,Wunderground v.1.15,2013-04-11 23:10:00,
2013-04-11 19:20:00,69.2,68.6,29.65,WNW,298,5.0,5.0,98,0.38,,,1.22,Wunderground v.1.15,2013-04-11 23:20:00,
2013-04-11 19:25:00,69.2,68.9,29.64,NW,311,2.0,5.0,99,0.15,,,1.24,Wunderground v.1.15,2013-04-11 23:25:00,
2013-04-11 19:30:00,69.1,68.5,29.63,WNW,296,1.0,1.0,98,0.06,,,1.24,Wunderground v.1.15,2013-04-11 23:30:00,
2013-04-11 19:40:00,69.0,68.4,29.62,WNW,296,0.0,26.0,98,0.06,,,1.25,Wunderground v.1.15,2013-04-11 23:40:00,
2013-04-11 19:45:00,69.1,68.5,29.62,WNW,296,0.0,26.0,98,0.04,,,1.25,Wunderground v.1.15,2013-04-11 23:45:00,
2013-04-11 19:50:00,69.0,68.4,29.61,WNW,296,0.0,26.0,98,0.00,,,1.25,Wunderground v.1.15,2013-04-11 23:50:00,
2013-04-11 20:00:00,68.9,68.3,29.64,WNW,296,0.0,26.0,98,0.00,,,1.25,Wunderground v.1.15,2013-04-12 00:00:00,
2013-04-11 20:05:00,69.0,68.7,29.64,SW,221,0.0,26.0,99,0.00,,,1.25,Wunderground v.1.15,2013-04-12 00:05:00,
2013-04-11 20:10:00,69.0,68.4,29.65,SW,214,1.0,26.0,98,0.00,,,1.25,Wunderground v.1.15,2013-04-12 00:10:00,
2013-04-11 20:20:00,69.1,68.5,29.66,SSW,199,7.0,26.0,98,0.00,,,1.25,Wunderground v.1.15,2013-04-12 00:20:00,
2013-04-11 20:25:00,68.9,68.3,29.67,SSW,204,8.0,26.0,98,0.00,,,1.25,Wunderground v.1.15,2013-04-12 00:25:00,
2013-04-11 20:35:00,68.8,68.2,29.67,SW,219,7.0,26.0,98,0.00,,,1.25,Wunderground v.1.15,2013-04-12 00:35:00,
2013-04-11 20:40:00,68.7,68.1,29.67,SSW,209,6.0,26.0,98,0.00,,,1.25,Wunderground v.1.15,2013-04-12 00:40:00,
2013-04-11 20:50:00,68.9,68.3,29.67,SW,219,8.0,26.0,98,0.00,,,1.25,Wunderground v.1.15,2013-04-12 00:50:00,
2013-04-11 20:55:00,68.9,68.3,29.67,SW,236,7.0,26.0,98,0.00,,,1.25,Wunderground v.1.15,2013-04-12 00:55:00,
2013-04-11 21:05:00,68.8,68.5,29.67,WSW,246,7.0,26.0,99,0.00,,,1.25,Wunderground v.1.15,2013-04-12 01:05:00,
2013-04-11 21:10:00,68.7,68.1,29.67,WSW,246,7.0,26.0,98,0.00,,,1.25,Wunderground v.1.15,2013-04-12 01:10:00,
2013-04-11 21:20:00,68.8,68.5,29.68,WSW,248,7.0,26.0,99,0.00,,,1.25,Wunderground v.1.15,2013-04-12 01:20:00,
2013-04-11 21:25:00,68.8,68.5,29.68,WSW,250,7.0,26.0,99,0.00,,,1.25,Wunderground v.1.15,2013-04-12 01:25:00,
2013-04-11 21:35:00,68.8,68.5,29.69,WNW,284,9.0,11.0,99,0.00,,,1.25,Wunderground v.1.15,2013-04-12 01:35:00,
2013-04-11 21:40:00,68.0,67.4,29.69,WNW,303,12.0,26.0,98,0.00,,,1.25,Wunderground v.1.15,2013-04-12 01:40:00,
2013-04-11 21:45:00,66.8,65.9,29.71,NW,312,19.0,29.0,97,0.00,,,1.25,Wunderground v.1.15,2013-04-12 01:45:00,
2013-04-11 21:55:00,65.1,64.5,29.71,NW,317,23.0,26.0,98,0.00,,,1.25,Wunderground v.1.15,2013-04-12 01:55:00,
2013-04-11 22:00:00,64.2,63.3,29.71,NNW,342,22.0,22.0,97,0.00,,,1.25,Wunderground v.1.15,2013-04-12 02:00:00,
2013-04-11 22:05:00,63.4,62.5,29.71,NW,308,21.0,26.0,97,0.00,,,1.25,Wunderground v.1.15,2013-04-12 02:05:00,
2013-04-11 22:10:00,63.4,62.8,29.72,NW,313,19.0,19.0,98,0.00,,,1.25,Wunderground v.1.15,2013-04-12 02:10:00,
2013-04-11 22:20:00,62.9,62.3,29.73,NW,311,18.0,18.0,98,0.00,,,1.25,Wunderground v.1.15,2013-04-12 02:20:00,
2013-04-11 22:25:00,63.0,62.4,29.74,NNW,330,16.0,26.0,98,0.00,,,1.25,Wunderground v.1.15,2013-04-12 02:25:00,
2013-04-11 22:35:00,62.6,61.7,29.74,NNW,348,18.0,26.0,97,0.00,,,1.25,Wunderground v.1.15,2013-04-12 02:35:00,
2013-04-11 22:40:00,62.6,62.6,29.75,NW,308,17.0,17.0,100,0.00,,,1.25,Wunderground v.1.15,2013-04-12 02:40:00,
2013-04-11 22:50:00,62.3,61.4,29.75,NW,310,16.0,26.0,97,0.00,,,1.25,Wunderground v.1.15,2013-04-12 02:50:00,
2013-04-11 22:55:00,62.1,61.2,29.75,NNE,17,14.0,26.0,97,0.00,,,1.25,Wunderground v.1.15,2013-04-12 02:55:00,
2013-04-11 23:05:00,61.8,60.9,29.75,NW,319,12.0,26.0,97,0.00,,,1.25,Wunderground v.1.15,2013-04-12 03:05:00,
2013-04-11 23:10:00,61.8,60.9,29.76,WNW,297,12.0,12.0,97,0.00,,,1.25,Wunderground v.1.15,2013-04-12 03:10:00,
2013-04-11 23:15:00,61.8,60.9,29.76,NW,323,11.0,26.0,97,0.00,,,1.25,Wunderground v.1.15,2013-04-12 03:15:00,
2013-04-11 23:25:00,61.8,60.9,29.77,NNW,329,9.0,26.0,97,0.00,,,1.25,Wunderground v.1.15,2013-04-12 03:25:00,
2013-04-11 23:30:00,61.8,60.9,29.77,NNW,338,8.0,26.0,97,0.00,,,1.25,Wunderground v.1.15,2013-04-12 03:30:00,
2013-04-11 23:40:00,61.7,60.8,29.78,NW,321,7.0,26.0,97,0.00,,,1.25,Wunderground v.1.15,2013-04-12 03:40:00,
2013-04-11 23:45:00,61.7,60.8,29.78,NW,309,7.0,26.0,97,0.00,,,1.25,Wunderground v.1.15,2013-04-12 03:45:00,
2013-04-11 23:50:00,61.8,60.9,29.78,NNW,329,7.0,7.0,97,0.00,,,1.25,Wunderground v.1.15,2013-04-12 03:50:00,
2013-04-11 23:55:00,61.7,60.5,29.78,North,355,7.0,26.0,96,0.00,,,1.25,Wunderground v.1.15,2013-04-12 03:55:00,